sensor_id;sensor_type;location;lat;lon;timestamp;P1;durP1;ratioP1;P2;durP2;ratioP2
58017;SDS011;43810;50.860;19.226;2023-04-16T00:01:39;45.88;;;23.70;;
58017;SDS011;43810;50.860;19.226;2023-04-16T00:04:05;51.30;;;24.92;;
58017;SDS011;43810;50.860;19.226;2023-04-16T00:06:31;44.25;;;22.92;;
58017;SDS011;43810;50.860;19.226;2023-04-16T00:08:57;45.35;;;24.77;;
58017;SDS011;43810;50.860;19.226;2023-04-16T00:11:23;52.20;;;25.13;;
58017;SDS011;43810;50.860;19.226;2023-04-16T00:13:48;52.50;;;26.58;;
58017;SDS011;43810;50.860;19.226;2023-04-16T00:16:14;48.10;;;23.35;;
58017;SDS011;43810;50.860;19.226;2023-04-16T00:18:40;50.30;;;24.75;;
58017;SDS011;43810;50.860;19.226;2023-04-16T00:21:06;43.85;;;24.67;;
58017;SDS011;43810;50.860;19.226;2023-04-16T00:23:32;51.33;;;23.30;;
58017;SDS011;43810;50.860;19.226;2023-04-16T00:25:58;46.50;;;24.92;;
58017;SDS011;43810;50.860;19.226;2023-04-16T00:28:24;48.15;;;24.80;;
58017;SDS011;43810;50.860;19.226;2023-04-16T00:30:52;47.17;;;22.75;;
58017;SDS011;43810;50.860;19.226;2023-04-16T00:33:18;54.22;;;24.70;;
58017;SDS011;43810;50.860;19.226;2023-04-16T00:35:44;50.75;;;25.30;;
58017;SDS011;43810;50.860;19.226;2023-04-16T00:38:11;48.40;;;26.13;;
58017;SDS011;43810;50.860;19.226;2023-04-16T00:40:38;50.47;;;25.02;;
58017;SDS011;43810;50.860;19.226;2023-04-16T00:43:03;46.00;;;24.27;;
58017;SDS011;43810;50.860;19.226;2023-04-16T00:45:30;50.25;;;25.85;;
58017;SDS011;43810;50.860;19.226;2023-04-16T00:47:56;49.65;;;26.10;;
58017;SDS011;43810;50.860;19.226;2023-04-16T00:50:23;53.50;;;26.08;;
58017;SDS011;43810;50.860;19.226;2023-04-16T00:52:49;59.90;;;28.38;;
58017;SDS011;43810;50.860;19.226;2023-04-16T00:55:15;52.60;;;26.92;;
58017;SDS011;43810;50.860;19.226;2023-04-16T00:57:46;58.45;;;26.00;;
58017;SDS011;43810;50.860;19.226;2023-04-16T01:00:12;55.83;;;27.15;;
58017;SDS011;43810;50.860;19.226;2023-04-16T01:02:38;54.42;;;26.80;;
58017;SDS011;43810;50.860;19.226;2023-04-16T01:05:04;51.38;;;26.42;;
58017;SDS011;43810;50.860;19.226;2023-04-16T01:07:30;53.60;;;26.92;;
58017;SDS011;43810;50.860;19.226;2023-04-16T01:09:56;50.45;;;29.10;;
58017;SDS011;43810;50.860;19.226;2023-04-16T01:12:22;50.15;;;27.25;;
58017;SDS011;43810;50.860;19.226;2023-04-16T01:14:48;55.45;;;27.27;;
58017;SDS011;43810;50.860;19.226;2023-04-16T01:17:14;49.88;;;27.27;;
58017;SDS011;43810;50.860;19.226;2023-04-16T01:19:40;56.42;;;28.38;;
58017;SDS011;43810;50.860;19.226;2023-04-16T01:22:06;62.13;;;28.98;;
58017;SDS011;43810;50.860;19.226;2023-04-16T01:24:33;49.80;;;25.73;;
58017;SDS011;43810;50.860;19.226;2023-04-16T01:26:59;57.70;;;27.50;;
58017;SDS011;43810;50.860;19.226;2023-04-16T01:29:25;46.83;;;25.00;;
58017;SDS011;43810;50.860;19.226;2023-04-16T01:31:51;54.90;;;27.42;;
58017;SDS011;43810;50.860;19.226;2023-04-16T01:34:17;44.92;;;24.30;;
58017;SDS011;43810;50.860;19.226;2023-04-16T01:36:43;54.67;;;25.30;;
58017;SDS011;43810;50.860;19.226;2023-04-16T01:39:09;44.42;;;23.77;;
58017;SDS011;43810;50.860;19.226;2023-04-16T01:41:38;42.25;;;23.13;;
58017;SDS011;43810;50.860;19.226;2023-04-16T01:44:04;54.67;;;25.98;;
58017;SDS011;43810;50.860;19.226;2023-04-16T01:46:30;52.47;;;26.00;;
58017;SDS011;43810;50.860;19.226;2023-04-16T01:48:57;49.78;;;24.98;;
58017;SDS011;43810;50.860;19.226;2023-04-16T01:51:23;47.60;;;23.98;;
58017;SDS011;43810;50.860;19.226;2023-04-16T01:53:49;58.88;;;25.38;;
58017;SDS011;43810;50.860;19.226;2023-04-16T01:56:15;53.97;;;24.15;;
58017;SDS011;43810;50.860;19.226;2023-04-16T01:58:41;53.42;;;25.73;;
58017;SDS011;43810;50.860;19.226;2023-04-16T02:01:07;64.95;;;28.08;;
58017;SDS011;43810;50.860;19.226;2023-04-16T02:03:34;60.63;;;27.52;;
58017;SDS011;43810;50.860;19.226;2023-04-16T02:05:59;60.30;;;26.45;;
58017;SDS011;43810;50.860;19.226;2023-04-16T02:08:28;55.88;;;28.50;;
58017;SDS011;43810;50.860;19.226;2023-04-16T02:10:54;62.63;;;29.42;;
58017;SDS011;43810;50.860;19.226;2023-04-16T02:13:21;64.43;;;31.10;;
58017;SDS011;43810;50.860;19.226;2023-04-16T02:15:48;64.38;;;32.92;;
58017;SDS011;43810;50.860;19.226;2023-04-16T02:18:15;71.40;;;33.15;;
58017;SDS011;43810;50.860;19.226;2023-04-16T02:20:42;68.82;;;32.17;;
58017;SDS011;43810;50.860;19.226;2023-04-16T02:23:09;62.63;;;29.70;;
58017;SDS011;43810;50.860;19.226;2023-04-16T02:25:43;54.10;;;28.52;;
58017;SDS011;43810;50.860;19.226;2023-04-16T02:28:11;66.13;;;30.65;;
58017;SDS011;43810;50.860;19.226;2023-04-16T02:30:39;56.53;;;28.63;;
58017;SDS011;43810;50.860;19.226;2023-04-16T02:33:06;60.10;;;27.50;;
58017;SDS011;43810;50.860;19.226;2023-04-16T02:35:33;56.55;;;26.15;;
58017;SDS011;43810;50.860;19.226;2023-04-16T02:38:00;56.08;;;27.30;;
58017;SDS011;43810;50.860;19.226;2023-04-16T02:40:28;58.65;;;29.88;;
58017;SDS011;43810;50.860;19.226;2023-04-16T02:42:54;62.15;;;30.80;;
58017;SDS011;43810;50.860;19.226;2023-04-16T02:45:20;66.70;;;30.80;;
58017;SDS011;43810;50.860;19.226;2023-04-16T02:47:47;59.90;;;28.10;;
58017;SDS011;43810;50.860;19.226;2023-04-16T02:50:13;58.30;;;26.77;;
58017;SDS011;43810;50.860;19.226;2023-04-16T02:52:39;66.05;;;31.00;;
58017;SDS011;43810;50.860;19.226;2023-04-16T02:55:05;62.20;;;30.65;;
58017;SDS011;43810;50.860;19.226;2023-04-16T02:57:32;52.90;;;27.45;;
58017;SDS011;43810;50.860;19.226;2023-04-16T02:59:58;58.35;;;30.33;;
58017;SDS011;43810;50.860;19.226;2023-04-16T03:02:24;62.90;;;31.80;;
58017;SDS011;43810;50.860;19.226;2023-04-16T03:04:50;67.88;;;30.67;;
58017;SDS011;43810;50.860;19.226;2023-04-16T03:07:17;65.20;;;31.70;;
58017;SDS011;43810;50.860;19.226;2023-04-16T03:09:42;63.95;;;31.63;;
58017;SDS011;43810;50.860;19.226;2023-04-16T03:12:09;61.53;;;29.10;;
58017;SDS011;43810;50.860;19.226;2023-04-16T03:14:35;66.50;;;29.92;;
58017;SDS011;43810;50.860;19.226;2023-04-16T03:17:02;68.43;;;31.30;;
58017;SDS011;43810;50.860;19.226;2023-04-16T03:19:27;66.57;;;30.30;;
58017;SDS011;43810;50.860;19.226;2023-04-16T03:21:53;64.10;;;30.38;;
58017;SDS011;43810;50.860;19.226;2023-04-16T03:24:20;68.28;;;31.70;;
58017;SDS011;43810;50.860;19.226;2023-04-16T03:26:46;62.30;;;30.17;;
58017;SDS011;43810;50.860;19.226;2023-04-16T03:29:11;66.80;;;29.65;;
58017;SDS011;43810;50.860;19.226;2023-04-16T03:31:37;62.90;;;31.13;;
58017;SDS011;43810;50.860;19.226;2023-04-16T03:34:03;54.20;;;27.60;;
58017;SDS011;43810;50.860;19.226;2023-04-16T03:36:29;62.35;;;30.27;;
58017;SDS011;43810;50.860;19.226;2023-04-16T03:38:55;62.35;;;29.90;;
58017;SDS011;43810;50.860;19.226;2023-04-16T03:41:21;47.92;;;24.48;;
58017;SDS011;43810;50.860;19.226;2023-04-16T03:43:46;63.55;;;30.40;;
58017;SDS011;43810;50.860;19.226;2023-04-16T03:46:13;65.25;;;31.88;;
58017;SDS011;43810;50.860;19.226;2023-04-16T03:48:38;64.03;;;30.70;;
58017;SDS011;43810;50.860;19.226;2023-04-16T03:51:04;60.58;;;31.15;;
58017;SDS011;43810;50.860;19.226;2023-04-16T03:53:30;61.25;;;31.20;;
58017;SDS011;43810;50.860;19.226;2023-04-16T03:55:56;63.28;;;31.33;;
58017;SDS011;43810;50.860;19.226;2023-04-16T03:58:21;65.82;;;31.67;;
58017;SDS011;43810;50.860;19.226;2023-04-16T04:00:47;68.63;;;32.22;;
58017;SDS011;43810;50.860;19.226;2023-04-16T04:03:13;51.92;;;29.02;;
58017;SDS011;43810;50.860;19.226;2023-04-16T04:05:43;57.70;;;29.95;;
58017;SDS011;43810;50.860;19.226;2023-04-16T04:08:09;55.85;;;29.63;;
58017;SDS011;43810;50.860;19.226;2023-04-16T04:10:35;53.38;;;28.92;;
58017;SDS011;43810;50.860;19.226;2023-04-16T04:13:02;57.70;;;30.35;;
58017;SDS011;43810;50.860;19.226;2023-04-16T04:15:29;56.97;;;29.92;;
58017;SDS011;43810;50.860;19.226;2023-04-16T04:17:55;61.42;;;30.50;;
58017;SDS011;43810;50.860;19.226;2023-04-16T04:20:21;58.17;;;28.92;;
58017;SDS011;43810;50.860;19.226;2023-04-16T04:22:47;57.33;;;29.30;;
58017;SDS011;43810;50.860;19.226;2023-04-16T04:25:15;59.22;;;29.38;;
58017;SDS011;43810;50.860;19.226;2023-04-16T04:27:41;59.63;;;29.75;;
58017;SDS011;43810;50.860;19.226;2023-04-16T04:30:07;64.50;;;30.80;;
58017;SDS011;43810;50.860;19.226;2023-04-16T04:32:34;62.22;;;30.55;;
58017;SDS011;43810;50.860;19.226;2023-04-16T04:35:01;52.85;;;28.05;;
58017;SDS011;43810;50.860;19.226;2023-04-16T04:37:27;62.50;;;29.63;;
58017;SDS011;43810;50.860;19.226;2023-04-16T04:39:53;58.65;;;28.77;;
58017;SDS011;43810;50.860;19.226;2023-04-16T04:42:19;53.50;;;28.85;;
58017;SDS011;43810;50.860;19.226;2023-04-16T04:44:45;52.38;;;27.98;;
58017;SDS011;43810;50.860;19.226;2023-04-16T04:47:11;50.25;;;26.60;;
58017;SDS011;43810;50.860;19.226;2023-04-16T04:49:38;48.42;;;25.27;;
58017;SDS011;43810;50.860;19.226;2023-04-16T04:52:04;51.58;;;26.27;;
58017;SDS011;43810;50.860;19.226;2023-04-16T04:54:31;50.42;;;26.58;;
58017;SDS011;43810;50.860;19.226;2023-04-16T04:56:57;50.10;;;25.85;;
58017;SDS011;43810;50.860;19.226;2023-04-16T04:59:23;47.08;;;24.55;;
58017;SDS011;43810;50.860;19.226;2023-04-16T05:01:49;47.25;;;24.25;;
58017;SDS011;43810;50.860;19.226;2023-04-16T05:04:16;41.10;;;21.75;;
58017;SDS011;43810;50.860;19.226;2023-04-16T05:06:42;42.33;;;21.83;;
58017;SDS011;43810;50.860;19.226;2023-04-16T05:09:09;35.92;;;18.65;;
58017;SDS011;43810;50.860;19.226;2023-04-16T05:11:36;38.10;;;19.48;;
58017;SDS011;43810;50.860;19.226;2023-04-16T05:14:03;43.40;;;20.30;;
58017;SDS011;43810;50.860;19.226;2023-04-16T05:16:29;40.70;;;20.10;;
58017;SDS011;43810;50.860;19.226;2023-04-16T05:18:55;35.90;;;18.52;;
58017;SDS011;43810;50.860;19.226;2023-04-16T05:21:22;40.65;;;20.52;;
58017;SDS011;43810;50.860;19.226;2023-04-16T05:23:48;38.35;;;18.35;;
58017;SDS011;43810;50.860;19.226;2023-04-16T05:26:14;39.75;;;17.88;;
58017;SDS011;43810;50.860;19.226;2023-04-16T05:28:40;39.88;;;17.25;;
58017;SDS011;43810;50.860;19.226;2023-04-16T05:31:05;39.80;;;18.05;;
58017;SDS011;43810;50.860;19.226;2023-04-16T05:33:31;38.13;;;17.35;;
58017;SDS011;43810;50.860;19.226;2023-04-16T05:35:57;44.38;;;20.10;;
58017;SDS011;43810;50.860;19.226;2023-04-16T05:38:23;36.95;;;17.88;;
58017;SDS011;43810;50.860;19.226;2023-04-16T05:40:48;38.60;;;17.40;;
58017;SDS011;43810;50.860;19.226;2023-04-16T05:43:15;32.97;;;17.13;;
58017;SDS011;43810;50.860;19.226;2023-04-16T05:45:40;36.72;;;17.92;;
58017;SDS011;43810;50.860;19.226;2023-04-16T05:48:07;37.22;;;17.52;;
58017;SDS011;43810;50.860;19.226;2023-04-16T05:50:36;39.67;;;17.45;;
58017;SDS011;43810;50.860;19.226;2023-04-16T05:53:04;36.03;;;17.15;;
58017;SDS011;43810;50.860;19.226;2023-04-16T05:55:31;35.55;;;17.55;;
58017;SDS011;43810;50.860;19.226;2023-04-16T05:57:57;34.67;;;16.70;;
58017;SDS011;43810;50.860;19.226;2023-04-16T06:00:23;34.72;;;16.48;;
58017;SDS011;43810;50.860;19.226;2023-04-16T06:02:50;34.40;;;16.58;;
58017;SDS011;43810;50.860;19.226;2023-04-16T06:05:16;31.13;;;15.60;;
58017;SDS011;43810;50.860;19.226;2023-04-16T06:07:42;36.22;;;17.35;;
58017;SDS011;43810;50.860;19.226;2023-04-16T06:10:07;31.42;;;16.20;;
58017;SDS011;43810;50.860;19.226;2023-04-16T06:12:34;33.95;;;15.35;;
58017;SDS011;43810;50.860;19.226;2023-04-16T06:15:00;30.08;;;13.85;;
58017;SDS011;43810;50.860;19.226;2023-04-16T06:17:26;31.20;;;16.02;;
58017;SDS011;43810;50.860;19.226;2023-04-16T06:19:51;32.10;;;15.88;;
58017;SDS011;43810;50.860;19.226;2023-04-16T06:22:17;28.80;;;15.00;;
58017;SDS011;43810;50.860;19.226;2023-04-16T06:24:43;27.67;;;14.80;;
58017;SDS011;43810;50.860;19.226;2023-04-16T06:27:09;26.60;;;14.88;;
58017;SDS011;43810;50.860;19.226;2023-04-16T06:29:35;30.67;;;15.95;;
58017;SDS011;43810;50.860;19.226;2023-04-16T06:32:01;25.23;;;14.20;;
58017;SDS011;43810;50.860;19.226;2023-04-16T06:34:28;30.27;;;14.43;;
58017;SDS011;43810;50.860;19.226;2023-04-16T06:36:54;30.27;;;14.93;;
58017;SDS011;43810;50.860;19.226;2023-04-16T06:39:20;27.42;;;14.38;;
58017;SDS011;43810;50.860;19.226;2023-04-16T06:41:46;25.70;;;13.55;;
58017;SDS011;43810;50.860;19.226;2023-04-16T06:44:12;27.50;;;12.77;;
58017;SDS011;43810;50.860;19.226;2023-04-16T06:46:39;28.15;;;14.23;;
58017;SDS011;43810;50.860;19.226;2023-04-16T06:49:05;22.85;;;13.15;;
58017;SDS011;43810;50.860;19.226;2023-04-16T06:51:32;23.02;;;12.30;;
58017;SDS011;43810;50.860;19.226;2023-04-16T06:53:57;25.83;;;13.43;;
58017;SDS011;43810;50.860;19.226;2023-04-16T06:56:24;25.08;;;13.82;;
58017;SDS011;43810;50.860;19.226;2023-04-16T06:58:50;24.60;;;13.50;;
58017;SDS011;43810;50.860;19.226;2023-04-16T07:01:16;21.90;;;12.80;;
58017;SDS011;43810;50.860;19.226;2023-04-16T07:03:42;23.63;;;12.45;;
58017;SDS011;43810;50.860;19.226;2023-04-16T07:06:08;21.67;;;11.98;;
58017;SDS011;43810;50.860;19.226;2023-04-16T07:08:35;24.13;;;12.93;;
58017;SDS011;43810;50.860;19.226;2023-04-16T07:11:01;26.85;;;13.27;;
58017;SDS011;43810;50.860;19.226;2023-04-16T07:13:26;29.35;;;14.88;;
58017;SDS011;43810;50.860;19.226;2023-04-16T07:15:52;28.15;;;13.70;;
58017;SDS011;43810;50.860;19.226;2023-04-16T07:18:18;21.20;;;12.02;;
58017;SDS011;43810;50.860;19.226;2023-04-16T07:20:44;25.25;;;13.55;;
58017;SDS011;43810;50.860;19.226;2023-04-16T07:23:10;26.45;;;13.40;;
58017;SDS011;43810;50.860;19.226;2023-04-16T07:25:36;29.58;;;13.55;;
58017;SDS011;43810;50.860;19.226;2023-04-16T07:28:02;25.92;;;13.52;;
58017;SDS011;43810;50.860;19.226;2023-04-16T07:30:28;35.50;;;15.98;;
58017;SDS011;43810;50.860;19.226;2023-04-16T07:32:59;26.20;;;14.15;;
58017;SDS011;43810;50.860;19.226;2023-04-16T07:35:26;34.13;;;17.52;;
58017;SDS011;43810;50.860;19.226;2023-04-16T07:37:51;37.60;;;16.80;;
58017;SDS011;43810;50.860;19.226;2023-04-16T07:40:17;31.90;;;15.35;;
58017;SDS011;43810;50.860;19.226;2023-04-16T07:42:43;57.97;;;26.45;;
58017;SDS011;43810;50.860;19.226;2023-04-16T07:45:09;39.78;;;18.23;;
58017;SDS011;43810;50.860;19.226;2023-04-16T07:47:35;46.33;;;22.02;;
58017;SDS011;43810;50.860;19.226;2023-04-16T07:50:01;53.05;;;25.50;;
58017;SDS011;43810;50.860;19.226;2023-04-16T07:52:26;51.75;;;24.42;;
58017;SDS011;43810;50.860;19.226;2023-04-16T07:54:52;48.80;;;24.05;;
58017;SDS011;43810;50.860;19.226;2023-04-16T07:57:18;56.30;;;25.63;;
58017;SDS011;43810;50.860;19.226;2023-04-16T07:59:44;51.60;;;24.30;;
58017;SDS011;43810;50.860;19.226;2023-04-16T08:02:11;52.33;;;23.65;;
58017;SDS011;43810;50.860;19.226;2023-04-16T08:04:40;53.00;;;24.45;;
58017;SDS011;43810;50.860;19.226;2023-04-16T08:07:07;46.90;;;20.85;;
58017;SDS011;43810;50.860;19.226;2023-04-16T08:09:33;45.45;;;20.45;;
58017;SDS011;43810;50.860;19.226;2023-04-16T08:12:02;48.65;;;21.08;;
58017;SDS011;43810;50.860;19.226;2023-04-16T08:14:28;47.78;;;23.63;;
58017;SDS011;43810;50.860;19.226;2023-04-16T08:16:54;47.85;;;21.73;;
58017;SDS011;43810;50.860;19.226;2023-04-16T08:19:20;49.22;;;21.58;;
58017;SDS011;43810;50.860;19.226;2023-04-16T08:21:45;46.97;;;21.33;;
58017;SDS011;43810;50.860;19.226;2023-04-16T08:24:12;45.47;;;21.42;;
58017;SDS011;43810;50.860;19.226;2023-04-16T08:26:38;45.42;;;22.67;;
58017;SDS011;43810;50.860;19.226;2023-04-16T08:29:04;47.92;;;21.90;;
58017;SDS011;43810;50.860;19.226;2023-04-16T08:31:29;46.00;;;21.73;;
58017;SDS011;43810;50.860;19.226;2023-04-16T08:33:56;46.70;;;21.15;;
58017;SDS011;43810;50.860;19.226;2023-04-16T08:36:21;46.83;;;21.70;;
58017;SDS011;43810;50.860;19.226;2023-04-16T08:38:48;48.60;;;21.45;;
58017;SDS011;43810;50.860;19.226;2023-04-16T08:41:14;56.40;;;23.63;;
58017;SDS011;43810;50.860;19.226;2023-04-16T08:43:43;45.40;;;21.30;;
58017;SDS011;43810;50.860;19.226;2023-04-16T08:46:13;42.25;;;19.77;;
58017;SDS011;43810;50.860;19.226;2023-04-16T08:48:42;44.08;;;19.55;;
58017;SDS011;43810;50.860;19.226;2023-04-16T08:51:12;42.42;;;20.10;;
58017;SDS011;43810;50.860;19.226;2023-04-16T08:53:48;45.30;;;20.45;;
58017;SDS011;43810;50.860;19.226;2023-04-16T08:56:22;52.03;;;23.25;;
58017;SDS011;43810;50.860;19.226;2023-04-16T08:58:49;42.80;;;19.30;;
58017;SDS011;43810;50.860;19.226;2023-04-16T09:01:16;44.13;;;19.77;;
58017;SDS011;43810;50.860;19.226;2023-04-16T09:03:45;47.90;;;19.90;;
58017;SDS011;43810;50.860;19.226;2023-04-16T09:06:13;43.67;;;20.10;;
58017;SDS011;43810;50.860;19.226;2023-04-16T09:08:42;44.63;;;19.67;;
58017;SDS011;43810;50.860;19.226;2023-04-16T09:11:09;48.38;;;21.20;;
58017;SDS011;43810;50.860;19.226;2023-04-16T09:13:36;41.92;;;20.05;;
58017;SDS011;43810;50.860;19.226;2023-04-16T09:16:02;43.75;;;20.70;;
58017;SDS011;43810;50.860;19.226;2023-04-16T09:18:29;46.55;;;21.00;;
58017;SDS011;43810;50.860;19.226;2023-04-16T09:20:55;44.60;;;20.17;;
58017;SDS011;43810;50.860;19.226;2023-04-16T09:23:21;45.97;;;20.35;;
58017;SDS011;43810;50.860;19.226;2023-04-16T09:25:47;44.55;;;20.05;;
58017;SDS011;43810;50.860;19.226;2023-04-16T09:31:13;46.20;;;19.38;;
58017;SDS011;43810;50.860;19.226;2023-04-16T09:36:09;43.88;;;19.83;;
58017;SDS011;43810;50.860;19.226;2023-04-16T09:38:45;43.55;;;19.92;;
58017;SDS011;43810;50.860;19.226;2023-04-16T09:41:12;42.15;;;18.98;;
58017;SDS011;43810;50.860;19.226;2023-04-16T09:43:43;38.97;;;18.63;;
58017;SDS011;43810;50.860;19.226;2023-04-16T09:46:20;38.58;;;18.50;;
58017;SDS011;43810;50.860;19.226;2023-04-16T09:48:46;39.67;;;19.17;;
58017;SDS011;43810;50.860;19.226;2023-04-16T09:51:12;44.47;;;19.73;;
58017;SDS011;43810;50.860;19.226;2023-04-16T09:53:38;40.60;;;20.13;;
58017;SDS011;43810;50.860;19.226;2023-04-16T09:56:04;33.17;;;17.20;;
58017;SDS011;43810;50.860;19.226;2023-04-16T09:58:34;35.63;;;16.95;;
58017;SDS011;43810;50.860;19.226;2023-04-16T10:03:36;33.28;;;15.38;;
58017;SDS011;43810;50.860;19.226;2023-04-16T10:06:06;34.75;;;17.00;;
58017;SDS011;43810;50.860;19.226;2023-04-16T10:08:33;31.58;;;17.08;;
58017;SDS011;43810;50.860;19.226;2023-04-16T10:10:59;36.72;;;18.70;;
58017;SDS011;43810;50.860;19.226;2023-04-16T10:13:25;39.47;;;20.02;;
58017;SDS011;43810;50.860;19.226;2023-04-16T10:15:55;34.70;;;17.70;;
58017;SDS011;43810;50.860;19.226;2023-04-16T10:18:22;34.13;;;17.23;;
58017;SDS011;43810;50.860;19.226;2023-04-16T10:20:51;32.60;;;17.10;;
58017;SDS011;43810;50.860;19.226;2023-04-16T10:23:18;31.42;;;17.20;;
58017;SDS011;43810;50.860;19.226;2023-04-16T10:25:46;37.70;;;19.40;;
58017;SDS011;43810;50.860;19.226;2023-04-16T10:28:14;33.97;;;17.02;;
58017;SDS011;43810;50.860;19.226;2023-04-16T10:30:44;29.80;;;16.33;;
58017;SDS011;43810;50.860;19.226;2023-04-16T10:33:18;38.55;;;20.23;;
58017;SDS011;43810;50.860;19.226;2023-04-16T10:35:48;34.58;;;17.63;;
58017;SDS011;43810;50.860;19.226;2023-04-16T10:40:48;32.40;;;17.10;;
58017;SDS011;43810;50.860;19.226;2023-04-16T10:43:18;29.73;;;16.67;;
58017;SDS011;43810;50.860;19.226;2023-04-16T10:45:44;29.25;;;16.35;;
58017;SDS011;43810;50.860;19.226;2023-04-16T10:48:12;30.98;;;15.93;;
58017;SDS011;43810;50.860;19.226;2023-04-16T10:50:39;29.13;;;15.88;;
58017;SDS011;43810;50.860;19.226;2023-04-16T10:53:18;29.45;;;16.58;;
58017;SDS011;43810;50.860;19.226;2023-04-16T10:58:33;31.00;;;15.65;;
58017;SDS011;43810;50.860;19.226;2023-04-16T11:01:05;31.05;;;14.98;;
58017;SDS011;43810;50.860;19.226;2023-04-16T11:03:32;28.08;;;16.05;;
58017;SDS011;43810;50.860;19.226;2023-04-16T11:06:10;28.17;;;14.75;;
58017;SDS011;43810;50.860;19.226;2023-04-16T11:08:38;27.13;;;14.70;;
58017;SDS011;43810;50.860;19.226;2023-04-16T11:11:05;28.50;;;15.35;;
58017;SDS011;43810;50.860;19.226;2023-04-16T11:13:33;23.63;;;12.73;;
58017;SDS011;43810;50.860;19.226;2023-04-16T11:16:01;26.85;;;13.93;;
58017;SDS011;43810;50.860;19.226;2023-04-16T11:18:28;32.72;;;15.07;;
58017;SDS011;43810;50.860;19.226;2023-04-16T11:20:53;26.95;;;13.48;;
58017;SDS011;43810;50.860;19.226;2023-04-16T11:23:20;22.15;;;11.75;;
58017;SDS011;43810;50.860;19.226;2023-04-16T11:25:46;23.23;;;12.27;;
58017;SDS011;43810;50.860;19.226;2023-04-16T11:28:12;22.08;;;12.05;;
58017;SDS011;43810;50.860;19.226;2023-04-16T11:30:38;24.02;;;11.57;;
58017;SDS011;43810;50.860;19.226;2023-04-16T11:33:06;21.13;;;11.50;;
58017;SDS011;43810;50.860;19.226;2023-04-16T11:35:33;21.73;;;10.95;;
58017;SDS011;43810;50.860;19.226;2023-04-16T11:38:00;18.70;;;10.43;;
58017;SDS011;43810;50.860;19.226;2023-04-16T11:40:29;19.48;;;10.57;;
58017;SDS011;43810;50.860;19.226;2023-04-16T11:43:00;19.02;;;11.18;;
58017;SDS011;43810;50.860;19.226;2023-04-16T11:45:37;17.70;;;11.02;;
58017;SDS011;43810;50.860;19.226;2023-04-16T11:48:03;20.48;;;11.88;;
58017;SDS011;43810;50.860;19.226;2023-04-16T11:50:28;18.30;;;10.60;;
58017;SDS011;43810;50.860;19.226;2023-04-16T11:52:55;17.35;;;9.88;;
58017;SDS011;43810;50.860;19.226;2023-04-16T11:55:27;17.77;;;9.35;;
58017;SDS011;43810;50.860;19.226;2023-04-16T11:57:53;15.10;;;9.02;;
58017;SDS011;43810;50.860;19.226;2023-04-16T12:00:19;16.73;;;8.98;;
58017;SDS011;43810;50.860;19.226;2023-04-16T12:02:48;16.48;;;7.88;;
58017;SDS011;43810;50.860;19.226;2023-04-16T12:05:26;16.60;;;9.20;;
58017;SDS011;43810;50.860;19.226;2023-04-16T12:07:57;11.05;;;7.55;;
58017;SDS011;43810;50.860;19.226;2023-04-16T12:10:26;15.77;;;7.75;;
58017;SDS011;43810;50.860;19.226;2023-04-16T12:15:48;11.85;;;6.72;;
58017;SDS011;43810;50.860;19.226;2023-04-16T12:18:16;11.82;;;6.57;;
58017;SDS011;43810;50.860;19.226;2023-04-16T12:20:43;11.20;;;6.28;;
58017;SDS011;43810;50.860;19.226;2023-04-16T12:23:13;12.52;;;7.00;;
58017;SDS011;43810;50.860;19.226;2023-04-16T12:25:55;10.02;;;6.35;;
58017;SDS011;43810;50.860;19.226;2023-04-16T12:28:33;9.98;;;6.10;;
58017;SDS011;43810;50.860;19.226;2023-04-16T12:31:00;11.35;;;5.95;;
58017;SDS011;43810;50.860;19.226;2023-04-16T12:33:27;9.52;;;6.32;;
58017;SDS011;43810;50.860;19.226;2023-04-16T12:35:53;8.90;;;6.22;;
58017;SDS011;43810;50.860;19.226;2023-04-16T12:38:19;10.40;;;6.90;;
58017;SDS011;43810;50.860;19.226;2023-04-16T12:40:45;9.38;;;6.28;;
58017;SDS011;43810;50.860;19.226;2023-04-16T12:43:11;9.63;;;5.78;;
58017;SDS011;43810;50.860;19.226;2023-04-16T12:45:38;7.13;;;5.10;;
58017;SDS011;43810;50.860;19.226;2023-04-16T12:48:05;7.80;;;5.60;;
58017;SDS011;43810;50.860;19.226;2023-04-16T12:50:30;6.95;;;4.07;;
58017;SDS011;43810;50.860;19.226;2023-04-16T12:52:57;6.78;;;3.75;;
58017;SDS011;43810;50.860;19.226;2023-04-16T12:55:23;5.45;;;3.70;;
58017;SDS011;43810;50.860;19.226;2023-04-16T12:57:50;10.25;;;3.85;;
58017;SDS011;43810;50.860;19.226;2023-04-16T13:00:19;11.30;;;4.65;;
58017;SDS011;43810;50.860;19.226;2023-04-16T13:02:45;8.32;;;4.65;;
58017;SDS011;43810;50.860;19.226;2023-04-16T13:05:11;4.97;;;3.70;;
58017;SDS011;43810;50.860;19.226;2023-04-16T13:07:40;7.47;;;4.57;;
58017;SDS011;43810;50.860;19.226;2023-04-16T13:10:07;9.43;;;4.78;;
58017;SDS011;43810;50.860;19.226;2023-04-16T13:12:33;5.38;;;4.40;;
58017;SDS011;43810;50.860;19.226;2023-04-16T13:14:59;8.38;;;4.75;;
58017;SDS011;43810;50.860;19.226;2023-04-16T13:17:26;18.25;;;6.15;;
58017;SDS011;43810;50.860;19.226;2023-04-16T13:19:51;8.77;;;4.85;;
58017;SDS011;43810;50.860;19.226;2023-04-16T13:22:17;6.32;;;4.22;;
58017;SDS011;43810;50.860;19.226;2023-04-16T13:24:43;7.18;;;4.18;;
58017;SDS011;43810;50.860;19.226;2023-04-16T13:27:09;7.15;;;4.05;;
58017;SDS011;43810;50.860;19.226;2023-04-16T13:29:35;7.63;;;4.10;;
58017;SDS011;43810;50.860;19.226;2023-04-16T13:32:01;4.90;;;4.20;;
58017;SDS011;43810;50.860;19.226;2023-04-16T13:34:27;6.32;;;3.45;;
58017;SDS011;43810;50.860;19.226;2023-04-16T13:36:53;5.47;;;3.45;;
58017;SDS011;43810;50.860;19.226;2023-04-16T13:39:19;5.22;;;3.40;;
58017;SDS011;43810;50.860;19.226;2023-04-16T13:41:45;4.38;;;3.30;;
58017;SDS011;43810;50.860;19.226;2023-04-16T13:44:13;3.80;;;3.10;;
58017;SDS011;43810;50.860;19.226;2023-04-16T13:46:39;3.25;;;2.60;;
58017;SDS011;43810;50.860;19.226;2023-04-16T13:49:07;6.28;;;4.50;;
58017;SDS011;43810;50.860;19.226;2023-04-16T13:51:33;6.82;;;4.88;;
58017;SDS011;43810;50.860;19.226;2023-04-16T13:53:59;6.13;;;4.60;;
58017;SDS011;43810;50.860;19.226;2023-04-16T13:56:25;6.75;;;4.47;;
58017;SDS011;43810;50.860;19.226;2023-04-16T13:58:53;12.25;;;5.40;;
58017;SDS011;43810;50.860;19.226;2023-04-16T14:01:19;7.63;;;5.13;;
58017;SDS011;43810;50.860;19.226;2023-04-16T14:03:45;7.97;;;4.97;;
58017;SDS011;43810;50.860;19.226;2023-04-16T14:06:11;7.85;;;5.68;;
58017;SDS011;43810;50.860;19.226;2023-04-16T14:08:38;6.20;;;4.93;;
58017;SDS011;43810;50.860;19.226;2023-04-16T14:11:03;7.03;;;4.70;;
58017;SDS011;43810;50.860;19.226;2023-04-16T14:13:31;6.53;;;4.88;;
58017;SDS011;43810;50.860;19.226;2023-04-16T14:15:56;6.20;;;4.90;;
58017;SDS011;43810;50.860;19.226;2023-04-16T14:18:22;5.60;;;4.72;;
58017;SDS011;43810;50.860;19.226;2023-04-16T14:20:48;6.22;;;4.82;;
58017;SDS011;43810;50.860;19.226;2023-04-16T14:23:14;27.48;;;6.45;;
58017;SDS011;43810;50.860;19.226;2023-04-16T14:25:40;9.00;;;5.22;;
58017;SDS011;43810;50.860;19.226;2023-04-16T14:28:06;9.65;;;5.15;;